Time;durP1;ratioP1;P1;durP2;ratioP2;P2;SDS_P1;SDS_P2;PMS_P1;PMS_P2;Temp;Humidity;BMP_temperature;BMP_pressure;BME280_temperature;BME280_humidity;BME280_pressure;Samples;Min_cycle;Max_cycle;Signal;HPM_P1;HPM_P2
2022/11/14 00:00:16;;;;;;;60.10;41.23;;;8.40;99.90;;;;;;5052396;28;20477;-45
2022/11/14 00:03:05;;;;;;;66.47;42.37;;;8.60;99.90;;;;;;5052587;28;20430;-46
2022/11/14 00:05:50;;;;;;;63.60;43.10;;;8.60;99.90;;;;;;5052400;28;20421;-48
2022/11/14 00:08:36;;;;;;;66.70;44.13;;;8.70;99.90;;;;;;5052415;28;20438;-45
2022/11/14 00:11:22;;;;;;;60.90;39.83;;;8.50;99.90;;;;;;5052508;28;20469;-47
2022/11/14 00:14:10;;;;;;;63.07;41.37;;;8.40;99.90;;;;;;5052213;28;20535;-46
2022/11/14 00:16:55;;;;;;;62.43;40.87;;;8.80;99.90;;;;;;5052303;28;20524;-46
2022/11/14 00:19:40;;;;;;;59.57;39.50;;;8.60;99.90;;;;;;5051930;28;20429;-46
2022/11/14 00:22:25;;;;;;;61.83;42.37;;;9.00;99.90;;;;;;5052198;28;20446;-46
2022/11/14 00:25:11;;;;;;;66.17;44.20;;;8.60;99.90;;;;;;5052203;28;20422;-45
2022/11/14 00:27:59;;;;;;;64.00;41.20;;;8.50;99.90;;;;;;5052423;28;20430;-46
2022/11/14 00:30:46;;;;;;;70.10;43.70;;;8.60;99.90;;;;;;5051816;28;20424;-46
2022/11/14 00:33:32;;;;;;;70.80;41.43;;;8.90;99.90;;;;;;5051629;28;20474;-46
2022/11/14 00:36:17;;;;;;;64.93;42.17;;;8.70;99.90;;;;;;5051986;28;20743;-46
2022/11/14 00:39:03;;;;;;;63.90;43.13;;;8.60;99.90;;;;;;5051794;28;20405;-47
2022/11/14 00:41:48;;;;;;;67.70;41.70;;;8.50;99.90;;;;;;5051703;28;20464;-46
2022/11/14 00:44:35;;;;;;;65.20;44.03;;;8.60;99.90;;;;;;5052184;28;20426;-47
2022/11/14 00:47:21;;;;;;;65.80;42.97;;;8.40;99.90;;;;;;5051856;28;20425;-45
2022/11/14 00:50:07;;;;;;;73.83;45.00;;;8.50;99.90;;;;;;5051600;28;20422;-47
2022/11/14 00:52:52;;;;;;;65.03;42.67;;;8.50;99.90;;;;;;5052041;28;20557;-47
2022/11/14 00:55:37;;;;;;;65.93;44.70;;;8.20;99.90;;;;;;5051874;28;20397;-47
2022/11/14 00:58:22;;;;;;;73.77;41.70;;;8.40;99.90;;;;;;5051588;28;20422;-48
2022/11/14 01:01:09;;;;;;;72.17;44.43;;;8.40;99.90;;;;;;5051916;28;20484;-46
2022/11/14 01:03:55;;;;;;;68.17;42.50;;;8.50;99.90;;;;;;5051980;28;20758;-48
2022/11/14 01:06:41;;;;;;;67.93;44.30;;;8.20;99.90;;;;;;5051904;28;20426;-45
2022/11/14 01:09:26;;;;;;;69.53;43.20;;;9.00;99.90;;;;;;5051590;28;20865;-45
2022/11/14 01:12:11;;;;;;;80.93;45.33;;;8.20;99.90;;;;;;5052332;28;20441;-47
2022/11/14 01:14:57;;;;;;;82.60;46.27;;;8.50;99.90;;;;;;5051650;28;20497;-47
2022/11/14 01:17:43;;;;;;;76.90;44.83;;;7.60;99.90;;;;;;5051857;28;20429;-47
2022/11/14 01:20:28;;;;;;;82.10;45.67;;;8.40;99.90;;;;;;5051477;28;20426;-45
2022/11/14 01:23:15;;;;;;;65.83;43.83;;;8.30;99.90;;;;;;5051559;28;20429;-46
2022/11/14 01:26:02;;;;;;;80.67;46.73;;;8.80;99.90;;;;;;5051820;28;20430;-47
2022/11/14 01:28:47;;;;;;;93.10;48.90;;;7.70;99.90;;;;;;5051330;28;20429;-47
2022/11/14 01:31:33;;;;;;;75.30;44.10;;;8.20;99.90;;;;;;5051267;28;20681;-46
2022/11/14 01:34:19;;;;;;;78.23;45.57;;;8.20;99.90;;;;;;5051482;28;20532;-46
2022/11/14 01:37:04;;;;;;;86.13;46.73;;;8.00;99.90;;;;;;5051703;28;20948;-46
2022/11/14 01:39:49;;;;;;;82.10;46.30;;;7.80;99.90;;;;;;5051301;28;20931;-47
2022/11/14 01:42:34;;;;;;;90.23;48.80;;;8.10;99.90;;;;;;5051457;28;20828;-46
2022/11/14 01:45:50;;;;;;;86.23;47.50;;;8.00;99.90;;;;;;5051812;28;20427;-46
2022/11/14 01:48:40;;;;;;;83.77;46.50;;;8.00;99.90;;;;;;5054876;28;20946;-47
2022/11/14 01:51:31;;;;;;;88.97;48.90;;;7.20;99.90;;;;;;5054837;28;21000;-46
2022/11/14 01:54:22;;;;;;;93.13;46.33;;;7.70;99.90;;;;;;5054768;28;20489;-46
2022/11/14 01:57:09;;;;;;;85.10;47.70;;;7.90;99.90;;;;;;5055046;28;21053;-47
2022/11/14 01:59:57;;;;;;;79.27;45.73;;;7.20;99.90;;;;;;5054682;28;20447;-49
2022/11/14 02:02:43;;;;;;;96.23;48.77;;;7.90;99.90;;;;;;5054929;28;20434;-47
2022/11/14 02:05:29;;;;;;;94.40;50.47;;;7.90;99.90;;;;;;5054737;28;20436;-47
2022/11/14 02:08:16;;;;;;;91.87;48.03;;;7.90;99.90;;;;;;5054810;28;20780;-47
2022/11/14 02:11:01;;;;;;;82.03;45.97;;;8.30;99.90;;;;;;5054817;28;20927;-47
2022/11/14 02:13:46;;;;;;;83.23;45.97;;;7.40;99.90;;;;;;5054595;28;20507;-46
2022/11/14 02:16:32;;;;;;;89.73;47.83;;;8.10;99.90;;;;;;5055098;28;20438;-48
2022/11/14 02:19:17;;;;;;;84.50;46.30;;;7.40;99.90;;;;;;5054247;28;20476;-47
2022/11/14 02:22:04;;;;;;;83.67;45.33;;;7.90;99.90;;;;;;5054154;28;20458;-47
2022/11/14 02:24:49;;;;;;;89.87;47.50;;;8.20;99.90;;;;;;5054518;28;20525;-46
2022/11/14 02:27:36;;;;;;;78.83;44.20;;;7.60;99.90;;;;;;5054493;28;20889;-46
2022/11/14 02:30:22;;;;;;;82.20;46.73;;;8.10;99.90;;;;;;5053888;28;20944;-47
2022/11/14 02:33:07;;;;;;;80.97;44.63;;;8.10;99.90;;;;;;5054397;28;20425;-46
2022/11/14 02:35:53;;;;;;;89.60;46.90;;;8.10;99.90;;;;;;5053998;28;20631;-47
2022/11/14 02:38:40;;;;;;;79.13;43.37;;;8.10;99.90;;;;;;5053950;28;20425;-48
2022/11/14 02:41:25;;;;;;;86.07;47.07;;;8.40;99.90;;;;;;5053808;28;20826;-47
2022/11/14 02:44:10;;;;;;;77.87;46.70;;;8.40;99.90;;;;;;5054117;28;20429;-47
2022/11/14 02:46:55;;;;;;;85.23;44.63;;;8.30;99.90;;;;;;5054082;28;20430;-47
2022/11/14 02:49:40;;;;;;;82.10;44.60;;;8.00;99.90;;;;;;5053720;28;20430;-47
2022/11/14 02:52:25;;;;;;;83.90;45.10;;;8.50;99.90;;;;;;5053961;28;20441;-46
2022/11/14 02:55:12;;;;;;;85.93;43.80;;;8.50;99.90;;;;;;5053730;28;20476;-46
2022/11/14 02:57:57;;;;;;;88.27;47.37;;;8.20;99.90;;;;;;5052916;28;20413;-46
2022/11/14 03:00:43;;;;;;;87.53;45.40;;;8.20;99.90;;;;;;5053553;28;20473;-48
2022/11/14 03:03:28;;;;;;;87.73;46.30;;;8.30;99.90;;;;;;5053839;28;20945;-46
2022/11/14 03:06:14;;;;;;;87.73;46.30;;;8.80;99.90;;;;;;5053778;28;20402;-47
2022/11/14 03:08:59;;;;;;;79.90;45.47;;;8.30;99.90;;;;;;5053309;28;20430;-48
2022/11/14 03:11:45;;;;;;;76.87;43.57;;;8.30;99.90;;;;;;5053230;28;20445;-47
2022/11/14 03:14:30;;;;;;;76.53;43.87;;;8.20;99.90;;;;;;5053522;28;20552;-47
2022/11/14 03:17:15;;;;;;;84.63;45.87;;;8.10;99.90;;;;;;5053264;28;20434;-47
2022/11/14 03:20:00;;;;;;;88.57;47.97;;;8.10;99.90;;;;;;5053373;28;20426;-46
2022/11/14 03:22:45;;;;;;;100.37;49.20;;;7.80;99.90;;;;;;5053368;28;20774;-47
2022/11/14 03:25:31;;;;;;;88.57;45.90;;;8.00;99.90;;;;;;5053463;28;20559;-47
2022/11/14 03:28:17;;;;;;;89.00;44.83;;;8.30;99.90;;;;;;5053284;28;20510;-47
2022/11/14 03:31:03;;;;;;;91.13;47.97;;;7.90;99.90;;;;;;5053256;28;20454;-46
2022/11/14 03:33:48;;;;;;;88.40;44.80;;;8.20;99.90;;;;;;5053233;28;20955;-48
2022/11/14 03:36:34;;;;;;;85.57;46.97;;;8.20;99.90;;;;;;5053439;28;20942;-47
2022/11/14 03:39:20;;;;;;;85.90;44.30;;;8.10;99.90;;;;;;5052735;28;20441;-47
2022/11/14 03:42:05;;;;;;;83.30;47.20;;;8.30;99.90;;;;;;5053215;28;20469;-47
2022/11/14 03:44:52;;;;;;;85.67;45.70;;;8.40;99.90;;;;;;5052904;28;20780;-47
2022/11/14 03:47:37;;;;;;;95.57;47.03;;;8.00;99.90;;;;;;5052966;28;20444;-47
2022/11/14 03:50:22;;;;;;;95.13;46.57;;;8.20;99.90;;;;;;5052286;28;20432;-46
2022/11/14 03:53:07;;;;;;;97.23;45.77;;;8.50;99.90;;;;;;5052846;28;20914;-47
2022/11/14 03:55:53;;;;;;;89.77;45.80;;;7.90;99.90;;;;;;5052498;28;20455;-48
2022/11/14 03:58:37;;;;;;;97.60;48.20;;;8.30;99.90;;;;;;5052524;28;20514;-47
2022/11/14 04:01:24;;;;;;;94.03;48.60;;;8.00;99.90;;;;;;5052485;28;20988;-47
2022/11/14 04:04:10;;;;;;;92.97;47.30;;;8.00;99.90;;;;;;5052637;28;20569;-47
2022/11/14 04:06:55;;;;;;;92.00;47.47;;;8.30;99.90;;;;;;5052631;28;20934;-46
2022/11/14 04:09:43;;;;;;;88.73;47.47;;;8.20;99.90;;;;;;5052126;28;20884;-47
2022/11/14 04:12:28;;;;;;;85.83;45.53;;;8.10;99.90;;;;;;5052332;28;20451;-45
2022/11/14 04:15:14;;;;;;;90.20;46.40;;;8.00;99.90;;;;;;5052042;28;20838;-46
2022/11/14 04:18:00;;;;;;;97.63;48.93;;;7.80;99.90;;;;;;5052309;28;20784;-48
2022/11/14 04:20:46;;;;;;;87.47;44.40;;;8.00;99.90;;;;;;5052084;28;20427;-47
2022/11/14 04:23:31;;;;;;;90.93;46.47;;;8.10;99.90;;;;;;5052158;28;20526;-47
2022/11/14 04:26:17;;;;;;;93.33;48.27;;;8.00;99.90;;;;;;5052151;28;20429;-46
2022/11/14 04:29:02;;;;;;;94.00;44.90;;;8.00;99.90;;;;;;5051787;28;20427;-47
2022/11/14 04:31:48;;;;;;;91.87;48.20;;;8.10;99.90;;;;;;5052428;28;20449;-47
2022/11/14 04:34:34;;;;;;;99.73;47.00;;;7.70;99.90;;;;;;5052172;28;20473;-48
2022/11/14 04:37:20;;;;;;;95.40;46.23;;;8.00;99.90;;;;;;5052388;28;20437;-47
2022/11/14 04:40:07;;;;;;;88.83;45.60;;;8.00;99.90;;;;;;5051710;28;20785;-47
2022/11/14 04:42:52;;;;;;;105.53;48.17;;;7.70;99.90;;;;;;5052454;28;20743;-49
2022/11/14 04:45:38;;;;;;;103.03;46.67;;;8.00;99.90;;;;;;5051638;28;20434;-48
2022/11/14 04:48:23;;;;;;;103.93;48.27;;;7.90;99.90;;;;;;5051779;28;20436;-48
2022/11/14 04:51:10;;;;;;;100.90;48.30;;;7.40;99.90;;;;;;5051518;28;20446;-49
2022/11/14 04:53:56;;;;;;;89.87;45.70;;;7.70;99.90;;;;;;5051965;28;20925;-48
2022/11/14 04:56:41;;;;;;;104.57;50.40;;;7.80;99.90;;;;;;5051974;28;20396;-48
2022/11/14 04:59:26;;;;;;;104.43;50.17;;;7.80;99.90;;;;;;5051362;28;20418;-48
2022/11/14 05:02:12;;;;;;;97.13;47.93;;;7.80;99.90;;;;;;5051735;28;20457;-48
2022/11/14 05:04:57;;;;;;;92.33;46.43;;;7.80;99.90;;;;;;5051812;28;21052;-48
2022/11/14 05:07:43;;;;;;;97.17;49.67;;;7.80;99.90;;;;;;5051861;28;20401;-48
2022/11/14 05:10:29;;;;;;;98.63;48.93;;;8.20;99.90;;;;;;5051335;28;20892;-48
2022/11/14 05:13:14;;;;;;;112.37;51.83;;;8.10;99.90;;;;;;5051591;28;20775;-48
2022/11/14 05:15:59;;;;;;;109.17;50.10;;;7.80;99.90;;;;;;5051239;28;20559;-49
2022/11/14 05:18:45;;;;;;;109.93;49.30;;;7.70;99.90;;;;;;5051039;28;20406;-48
2022/11/14 05:21:30;;;;;;;95.43;46.70;;;7.20;99.90;;;;;;5053935;28;20451;-48
2022/11/14 05:24:18;;;;;;;98.67;47.27;;;8.50;99.90;;;;;;5054931;28;20402;-48
2022/11/14 05:27:03;;;;;;;94.10;47.03;;;7.80;99.90;;;;;;5054914;28;20637;-49
2022/11/14 05:29:48;;;;;;;96.47;47.00;;;8.10;99.90;;;;;;5054884;28;20910;-48
2022/11/14 05:32:34;;;;;;;95.77;47.30;;;7.90;99.90;;;;;;5055127;28;20592;-48
2022/11/14 05:35:19;;;;;;;90.70;46.47;;;7.70;99.90;;;;;;5055146;28;20488;-48
2022/11/14 05:38:04;;;;;;;98.17;46.50;;;8.00;99.90;;;;;;5055110;28;21065;-48
2022/11/14 05:40:51;;;;;;;98.87;49.40;;;8.10;99.90;;;;;;5054623;28;20544;-48
2022/11/14 05:43:37;;;;;;;101.57;48.57;;;8.00;99.90;;;;;;5055039;28;20424;-48
2022/11/14 05:46:22;;;;;;;98.67;48.33;;;7.90;99.90;;;;;;5055121;28;20553;-48
2022/11/14 05:49:07;;;;;;;107.83;49.20;;;7.70;99.90;;;;;;5054495;28;20422;-48
2022/11/14 05:51:52;;;;;;;95.30;47.73;;;8.00;99.90;;;;;;5054774;28;20577;-48
2022/11/14 05:54:37;;;;;;;104.33;46.80;;;7.50;99.90;;;;;;5054933;28;20426;-49
2022/11/14 05:57:24;;;;;;;102.30;46.47;;;8.00;99.90;;;;;;5054961;28;20428;-49
2022/11/14 06:00:10;;;;;;;88.80;45.70;;;8.30;99.90;;;;;;5054467;28;20433;-49
2022/11/14 06:02:56;;;;;;;95.30;46.40;;;8.00;99.90;;;;;;5054833;28;20496;-48
2022/11/14 06:05:41;;;;;;;101.60;44.70;;;8.20;99.90;;;;;;5054822;28;20422;-49
2022/11/14 06:08:28;;;;;;;99.13;45.50;;;8.00;99.90;;;;;;5053882;28;20945;-49
2022/11/14 06:11:14;;;;;;;92.43;44.83;;;8.50;99.90;;;;;;5054704;28;20966;-49
2022/11/14 06:14:01;;;;;;;87.23;44.87;;;7.90;99.90;;;;;;5054405;28;20433;-49
2022/11/14 06:16:46;;;;;;;90.57;44.90;;;8.40;99.90;;;;;;5054375;28;20519;-49
2022/11/14 06:19:31;;;;;;;98.87;44.97;;;8.00;99.90;;;;;;5054012;28;20818;-50
2022/11/14 06:22:16;;;;;;;90.73;45.50;;;8.30;99.90;;;;;;5054056;28;20450;-49
2022/11/14 06:25:01;;;;;;;88.80;43.83;;;8.30;99.90;;;;;;5054011;28;20788;-49
2022/11/14 06:27:46;;;;;;;84.27;43.60;;;8.30;99.90;;;;;;5053923;28;20488;-49
2022/11/14 06:30:33;;;;;;;91.97;45.40;;;8.10;99.90;;;;;;5053250;28;20439;-49
2022/11/14 06:33:18;;;;;;;100.20;45.90;;;8.20;99.90;;;;;;5052418;28;20422;-48
2022/11/14 06:36:05;;;;;;;95.70;47.17;;;8.40;99.90;;;;;;5053465;28;20530;-48
2022/11/14 06:38:51;;;;;;;101.23;47.37;;;8.10;99.90;;;;;;5052691;28;20507;-49
2022/11/14 06:41:36;;;;;;;95.37;46.87;;;8.30;99.90;;;;;;5052884;28;20994;-48
2022/11/14 06:44:22;;;;;;;94.77;46.77;;;8.00;99.90;;;;;;5052662;28;20756;-49
2022/11/14 06:47:08;;;;;;;96.23;47.60;;;8.10;99.90;;;;;;5053325;28;20507;-49
2022/11/14 06:49:53;;;;;;;97.33;46.90;;;8.40;99.90;;;;;;5052733;28;20890;-48
2022/11/14 06:52:38;;;;;;;111.63;48.73;;;8.20;99.90;;;;;;5052873;28;20520;-48
2022/11/14 06:55:24;;;;;;;93.53;44.97;;;8.30;99.90;;;;;;5052503;28;20469;-48
2022/11/14 06:58:09;;;;;;;102.00;45.47;;;7.70;99.90;;;;;;5052777;28;20396;-48
2022/11/14 07:00:55;;;;;;;91.43;46.20;;;8.20;99.90;;;;;;5052500;28;20456;-48
2022/11/14 07:03:43;;;;;;;90.63;46.50;;;8.30;99.90;;;;;;5053406;28;20426;-48
2022/11/14 07:06:30;;;;;;;102.23;46.60;;;8.10;99.90;;;;;;5053127;28;20785;-49
2022/11/14 07:09:16;;;;;;;91.93;46.40;;;8.20;99.90;;;;;;5053049;28;20535;-49
2022/11/14 07:12:01;;;;;;;93.10;43.60;;;8.20;99.90;;;;;;5053185;28;20447;-48
2022/11/14 07:14:46;;;;;;;99.67;47.73;;;8.00;99.90;;;;;;5052715;28;20515;-49
2022/11/14 07:17:33;;;;;;;80.20;41.77;;;8.10;99.90;;;;;;5052459;28;20464;-49
2022/11/14 07:20:20;;;;;;;88.20;45.30;;;8.20;99.90;;;;;;5052285;28;20800;-49
2022/11/14 07:23:06;;;;;;;87.13;46.17;;;7.90;99.90;;;;;;5052787;28;20425;-49
2022/11/14 07:25:51;;;;;;;88.33;44.30;;;8.20;99.90;;;;;;5052503;28;20755;-49
2022/11/14 07:28:37;;;;;;;88.63;44.70;;;8.40;99.90;;;;;;5052287;28;20976;-49
2022/11/14 07:31:23;;;;;;;90.47;45.37;;;8.10;99.90;;;;;;5052674;28;20499;-49
2022/11/14 07:34:09;;;;;;;87.37;43.20;;;8.30;99.90;;;;;;5052436;28;20519;-49
2022/11/14 07:36:56;;;;;;;101.30;46.80;;;8.50;99.90;;;;;;5052012;28;20534;-49
2022/11/14 07:39:41;;;;;;;90.30;44.53;;;8.60;99.90;;;;;;5051886;28;20408;-49
2022/11/14 07:42:28;;;;;;;96.73;44.43;;;8.30;99.90;;;;;;5052484;28;20465;-49
2022/11/14 07:45:14;;;;;;;96.23;44.70;;;8.30;99.90;;;;;;5052078;28;20786;-49
2022/11/14 07:48:01;;;;;;;93.57;45.80;;;7.70;99.90;;;;;;5052459;28;20864;-49
2022/11/14 07:50:46;;;;;;;93.30;42.87;;;8.30;99.90;;;;;;5050987;28;20982;-49
2022/11/14 07:53:33;;;;;;;91.40;44.73;;;8.30;99.90;;;;;;5052277;28;20429;-50
2022/11/14 07:56:19;;;;;;;84.63;41.90;;;8.00;99.90;;;;;;5051459;28;20470;-49
2022/11/14 07:59:04;;;;;;;83.73;41.40;;;8.40;99.90;;;;;;5051590;28;20526;-50
2022/11/14 08:01:50;;;;;;;87.60;43.10;;;8.10;99.90;;;;;;5051844;28;20443;-49
2022/11/14 08:04:35;;;;;;;84.57;43.93;;;8.20;99.90;;;;;;5051927;28;20833;-50
2022/11/14 08:07:21;;;;;;;79.37;43.07;;;8.50;99.90;;;;;;5051775;28;20540;-49
2022/11/14 08:10:10;;;;;;;82.63;42.33;;;8.30;99.90;;;;;;5051625;28;20438;-49
2022/11/14 08:12:59;;;;;;;82.47;42.73;;;8.50;99.90;;;;;;5052528;28;20489;-48
2022/11/14 08:15:44;;;;;;;80.80;41.60;;;8.40;99.90;;;;;;5052208;28;20485;-46
2022/11/14 08:18:29;;;;;;;79.07;40.77;;;8.50;99.90;;;;;;5052716;28;20907;-48
2022/11/14 08:21:15;;;;;;;78.00;40.63;;;8.40;99.90;;;;;;5052765;28;20454;-49
2022/11/14 08:24:00;;;;;;;81.93;41.90;;;8.40;99.90;;;;;;5052291;28;20787;-47
2022/11/14 08:26:47;;;;;;;83.77;41.77;;;8.30;99.90;;;;;;5052288;28;20811;-48
2022/11/14 08:29:33;;;;;;;88.33;41.87;;;8.40;99.90;;;;;;5051520;28;20815;-49
2022/11/14 08:32:19;;;;;;;80.07;41.77;;;8.60;99.90;;;;;;5051674;28;20523;-47
2022/11/14 08:35:06;;;;;;;84.80;41.57;;;8.30;99.90;;;;;;5052151;28;20807;-47
2022/11/14 08:37:51;;;;;;;94.83;46.00;;;8.60;99.90;;;;;;5052067;28;20784;-46
2022/11/14 08:40:36;;;;;;;81.80;41.03;;;8.40;99.90;;;;;;5051139;28;20441;-47
2022/11/14 08:43:23;;;;;;;73.10;40.33;;;8.40;99.90;;;;;;5051793;28;20515;-48
2022/11/14 08:46:09;;;;;;;74.90;41.73;;;8.50;99.90;;;;;;5052092;28;20925;-48
2022/11/14 08:48:55;;;;;;;82.30;40.70;;;8.40;99.90;;;;;;5051439;28;20790;-48
2022/11/14 08:51:40;;;;;;;80.00;39.67;;;8.60;99.90;;;;;;5051816;28;20456;-47
2022/11/14 08:54:26;;;;;;;73.70;41.57;;;8.80;99.90;;;;;;5051575;28;20434;-47
2022/11/14 08:57:14;;;;;;;84.17;42.00;;;8.60;99.90;;;;;;5055358;28;20495;-48
2022/11/14 09:00:00;;;;;;;77.83;40.03;;;8.90;99.90;;;;;;5055831;28;20520;-48
2022/11/14 09:02:46;;;;;;;94.40;42.97;;;8.20;99.90;;;;;;5055849;28;20437;-48
2022/11/14 09:05:31;;;;;;;78.50;40.23;;;8.90;99.90;;;;;;5055602;28;20815;-46
2022/11/14 09:08:17;;;;;;;80.23;41.37;;;8.80;99.90;;;;;;5056146;28;20434;-47
2022/11/14 09:11:05;;;;;;;74.57;40.40;;;8.30;99.90;;;;;;5055796;28;20925;-47
2022/11/14 09:13:50;;;;;;;75.97;40.10;;;8.70;99.90;;;;;;5055942;28;20448;-46
2022/11/14 09:16:37;;;;;;;87.43;42.20;;;8.80;99.90;;;;;;5055871;28;21022;-45
2022/11/14 09:19:22;;;;;;;78.70;39.70;;;8.80;99.90;;;;;;5055173;28;20804;-46
2022/11/14 09:22:08;;;;;;;89.70;43.13;;;8.80;99.90;;;;;;5055434;28;20450;-45
2022/11/14 09:24:53;;;;;;;79.57;40.83;;;9.00;99.90;;;;;;5055349;28;20798;-46
2022/11/14 09:27:38;;;;;;;74.73;37.90;;;8.80;99.90;;;;;;5055419;28;20426;-46
2022/11/14 09:30:23;;;;;;;79.50;41.17;;;8.80;99.90;;;;;;5054949;28;20422;-46
2022/11/14 09:33:10;;;;;;;73.77;38.83;;;8.60;99.90;;;;;;5055301;28;20635;-47
2022/11/14 09:35:57;;;;;;;67.50;38.17;;;9.10;99.90;;;;;;5055355;28;20493;-45
2022/11/14 09:38:43;;;;;;;63.70;38.17;;;9.00;99.90;;;;;;5054534;28;20923;-46
2022/11/14 09:41:41;;;;;;;68.70;37.00;;;8.30;99.90;;;;;;5054476;28;20563;-46
2022/11/14 09:44:37;;;;;;;69.40;39.17;;;8.80;99.90;;;;;;5055106;28;20434;-46
2022/11/14 09:47:27;;;;;;;69.07;37.10;;;8.80;99.90;;;;;;5054441;28;20447;-47
2022/11/14 09:50:17;;;;;;;68.20;37.07;;;8.50;99.90;;;;;;5054564;28;20953;-47
2022/11/14 09:53:06;;;;;;;61.43;35.27;;;8.70;99.90;;;;;;5054605;28;20459;-46
2022/11/14 09:55:52;;;;;;;57.17;35.83;;;9.00;99.90;;;;;;5054924;28;20422;-48
2022/11/14 09:58:37;;;;;;;69.47;36.50;;;8.90;99.90;;;;;;5054377;28;20499;-47
2022/11/14 10:01:32;;;;;;;63.33;35.80;;;8.80;99.90;;;;;;5054593;28;20507;-46
2022/11/14 10:04:23;;;;;;;56.87;32.27;;;8.90;99.90;;;;;;5055240;28;20561;-47
2022/11/14 10:07:23;;;;;;;63.37;37.00;;;9.00;99.90;;;;;;5054240;28;20417;-47
2022/11/14 10:10:18;;;;;;;57.93;32.87;;;9.00;99.90;;;;;;5053910;28;20427;-48
2022/11/14 10:13:17;;;;;;;63.00;34.27;;;9.10;99.90;;;;;;5054540;28;20401;-46
2022/11/14 10:16:07;;;;;;;60.73;35.07;;;9.00;99.90;;;;;;5053864;28;20509;-47
2022/11/14 10:19:03;;;;;;;61.77;34.47;;;8.90;99.90;;;;;;5054220;28;20544;-48
2022/11/14 10:22:01;;;;;;;67.93;35.37;;;9.00;99.90;;;;;;5054237;28;20798;-48
2022/11/14 10:24:58;;;;;;;60.10;34.57;;;8.60;99.90;;;;;;5053452;28;20434;-47
2022/11/14 10:27:56;;;;;;;61.17;35.70;;;9.10;99.90;;;;;;5053659;28;20434;-47
2022/11/14 10:30:51;;;;;;;60.87;34.80;;;9.40;99.90;;;;;;5053554;28;20928;-47
2022/11/14 10:33:46;;;;;;;56.90;35.27;;;8.70;99.90;;;;;;5034532;28;20557;-48
2022/11/14 10:36:53;;;;;;;59.60;34.60;;;9.20;99.90;;;;;;5034165;28;20474;-46
2022/11/14 10:39:42;;;;;;;61.20;34.70;;;9.60;99.90;;;;;;5035677;28;20427;-49
2022/11/14 10:42:34;;;;;;;61.27;34.20;;;9.40;99.90;;;;;;5053974;28;20589;-51
2022/11/14 10:45:26;;;;;;;58.93;34.90;;;9.60;99.90;;;;;;5053513;28;20797;-48
2022/11/14 10:48:15;;;;;;;58.57;36.00;;;9.40;99.90;;;;;;5053429;28;20422;-49
2022/11/14 10:51:06;;;;;;;58.57;34.57;;;9.50;99.90;;;;;;5053403;28;20453;-50
2022/11/14 10:53:55;;;;;;;55.63;33.87;;;9.50;99.90;;;;;;5053535;28;20950;-49
2022/11/14 10:56:47;;;;;;;49.97;31.13;;;9.30;99.90;;;;;;5053273;28;20479;-49
2022/11/14 10:59:33;;;;;;;57.73;34.57;;;9.50;99.90;;;;;;5053804;28;20508;-49
2022/11/14 11:02:19;;;;;;;54.50;33.70;;;9.60;99.90;;;;;;5053404;28;20446;-49
2022/11/14 11:05:15;;;;;;;52.30;32.17;;;9.60;99.90;;;;;;5053441;28;20438;-49
2022/11/14 11:14:16;;;;;;;55.13;34.60;;;9.40;99.90;;;;;;5049220;28;20912;-49
2022/11/14 11:17:24;;;;;;;55.80;31.93;;;9.40;99.90;;;;;;5037322;28;20881;-48
2022/11/14 11:20:27;;;;;;;49.70;32.70;;;10.00;99.90;;;;;;5052282;28;20405;-48
2022/11/14 11:23:19;;;;;;;51.60;33.63;;;9.80;99.90;;;;;;5052563;28;20774;-47
2022/11/14 11:26:08;;;;;;;51.60;32.27;;;9.70;99.90;;;;;;5046281;28;20401;-48
2022/11/14 11:29:04;;;;;;;51.13;31.50;;;9.70;99.90;;;;;;5052488;28;20449;-48
2022/11/14 11:31:51;;;;;;;53.67;31.17;;;10.10;99.90;;;;;;5052238;28;20800;-48
2022/11/14 11:34:38;;;;;;;49.00;31.07;;;9.70;99.90;;;;;;5052861;28;20938;-49
2022/11/14 11:37:27;;;;;;;51.30;31.73;;;10.30;99.90;;;;;;5052511;28;20484;-49
2022/11/14 11:40:17;;;;;;;48.50;32.00;;;9.50;99.90;;;;;;5051782;28;20510;-48
2022/11/14 11:43:05;;;;;;;48.50;31.67;;;9.60;99.90;;;;;;5051953;28;20437;-48
2022/11/14 11:45:52;;;;;;;47.80;32.40;;;10.00;99.90;;;;;;5052183;28;20419;-48
2022/11/14 11:48:39;;;;;;;52.87;32.97;;;9.40;99.90;;;;;;5051993;28;20418;-49
2022/11/14 11:51:27;;;;;;;51.30;32.27;;;10.10;99.90;;;;;;5052254;28;20488;-48
2022/11/14 11:54:17;;;;;;;47.60;31.23;;;10.20;99.90;;;;;;5052223;28;20965;-48
2022/11/14 11:57:09;;;;;;;44.33;28.40;;;10.10;99.90;;;;;;5051748;28;20527;-49
2022/11/14 12:00:02;;;;;;;50.60;32.37;;;10.00;99.90;;;;;;5051446;28;20637;-50
2022/11/14 12:02:50;;;;;;;48.93;32.23;;;9.90;99.90;;;;;;5051567;28;20853;-51
2022/11/14 12:05:44;;;;;;;51.37;30.50;;;10.10;99.90;;;;;;5051776;28;20500;-50
2022/11/14 12:08:44;;;;;;;49.50;31.63;;;10.20;99.90;;;;;;5051754;28;20438;-48
2022/11/14 12:11:32;;;;;;;48.47;31.03;;;10.40;99.90;;;;;;5042522;28;20450;-47
2022/11/14 12:14:39;;;;;;;47.33;30.47;;;10.50;99.90;;;;;;5042203;28;20426;-48
2022/11/14 12:17:56;;;;;;;44.00;28.97;;;10.20;99.90;;;;;;5040722;28;20898;-47
2022/11/14 12:20:56;;;;;;;42.63;29.00;;;10.20;99.90;;;;;;5031635;28;21000;-48
2022/11/14 12:24:14;;;;;;;48.33;29.77;;;10.50;99.90;;;;;;5032020;28;20823;-48
2022/11/14 12:27:13;;;;;;;48.20;30.00;;;10.10;99.90;;;;;;5031885;28;20793;-48
2022/11/14 12:30:12;;;;;;;47.40;30.17;;;10.30;99.90;;;;;;5031773;28;20428;-48
2022/11/14 12:33:01;;;;;;;56.47;33.23;;;10.10;99.90;;;;;;5052614;28;20442;-48
2022/11/14 12:35:51;;;;;;;44.07;28.47;;;10.30;99.90;;;;;;5051476;28;20425;-49
2022/11/14 12:38:43;;;;;;;53.13;30.77;;;10.40;99.90;;;;;;5050772;28;20485;-49
2022/11/14 12:41:32;;;;;;;38.83;27.10;;;10.40;99.90;;;;;;5050886;28;20480;-49
2022/11/14 12:44:30;;;;;;;43.23;27.60;;;10.70;99.90;;;;;;5050948;28;20461;-49
2022/11/14 12:47:18;;;;;;;38.90;27.37;;;10.70;99.90;;;;;;5051562;28;20418;-49
2022/11/14 12:50:20;;;;;;;38.93;26.90;;;10.10;99.90;;;;;;5051213;28;20505;-49
2022/11/14 12:53:43;;;;;;;30.13;23.00;;;10.50;99.90;;;;;;5051190;28;20520;-48
2022/11/14 12:56:55;;;;;;;41.23;25.53;;;10.60;99.90;;;;;;5051058;28;20434;-49
2022/11/14 12:59:54;;;;;;;40.30;26.53;;;10.20;99.90;;;;;;5051477;28;20791;-49
2022/11/14 13:02:56;;;;;;;38.80;27.50;;;10.20;99.90;;;;;;5051604;28;20441;-49
2022/11/14 13:06:00;;;;;;;34.13;25.30;;;10.90;99.90;;;;;;5051525;28;20426;-49
2022/11/14 13:09:07;;;;;;;39.27;27.17;;;10.30;99.90;;;;;;5050853;28;20485;-49
2022/11/14 13:24:23;;;;;;;37.40;26.80;;;10.50;99.90;;;;;;5030901;28;20512;-50
2022/11/14 13:27:25;;;;;;;42.10;27.07;;;10.60;99.90;;;;;;5031510;28;20431;-49
2022/11/14 13:30:11;;;;;;;37.77;24.50;;;10.40;99.90;;;;;;5031181;28;20515;-50
2022/11/14 13:32:56;;;;;;;32.47;24.73;;;11.00;99.90;;;;;;5050475;28;20438;-50
2022/11/14 13:35:47;;;;;;;33.03;24.40;;;10.70;99.90;;;;;;5050749;28;20422;-50
2022/11/14 13:38:56;;;;;;;40.03;27.03;;;10.60;99.90;;;;;;5050515;28;20466;-50
2022/11/14 13:42:09;;;;;;;36.30;26.33;;;10.50;99.90;;;;;;5052040;28;20461;-51
2022/11/14 13:45:17;;;;;;;29.83;22.63;;;10.90;99.90;;;;;;5054759;28;20771;-50
2022/11/14 13:48:34;;;;;;;32.27;24.10;;;10.60;99.90;;;;;;5054489;28;20463;-50
2022/11/14 13:51:21;;;;;;;30.27;21.07;;;10.60;99.90;;;;;;5054960;28;20441;-50
2022/11/14 13:54:11;;;;;;;29.20;22.47;;;11.10;99.90;;;;;;5054224;28;20500;-51
2022/11/14 13:57:07;;;;;;;41.23;26.23;;;10.60;99.90;;;;;;5054015;28;20812;-49
2022/11/14 14:00:01;;;;;;;32.30;22.80;;;10.90;99.90;;;;;;5053648;28;20398;-49
2022/11/14 14:03:05;;;;;;;28.13;22.90;;;10.80;99.90;;;;;;5054218;28;20430;-50
2022/11/14 14:06:06;;;;;;;27.37;22.20;;;10.80;99.90;;;;;;5054404;28;20935;-49
2022/11/14 14:09:03;;;;;;;34.20;24.20;;;10.60;99.90;;;;;;5054086;28;20427;-50
2022/11/14 14:12:21;;;;;;;26.13;22.23;;;10.80;99.90;;;;;;5054521;28;20444;-49
2022/11/14 14:15:19;;;;;;;29.23;22.27;;;10.80;99.90;;;;;;5054360;28;20465;-48
2022/11/14 14:18:18;;;;;;;28.63;22.97;;;10.60;99.90;;;;;;5053916;28;20511;-48
2022/11/14 14:21:13;;;;;;;27.13;21.10;;;10.70;99.90;;;;;;5042516;28;20471;-49
2022/11/14 14:24:07;;;;;;;31.73;22.60;;;10.60;99.90;;;;;;5044521;28;20435;-49
2022/11/14 14:27:05;;;;;;;28.60;21.30;;;10.80;99.90;;;;;;5046751;28;20435;-49
2022/11/14 14:29:58;;;;;;;28.90;23.00;;;10.30;99.90;;;;;;5033550;28;21059;-49
2022/11/14 14:33:01;;;;;;;28.57;23.67;;;10.60;99.90;;;;;;5051015;28;20433;-50
2022/11/14 14:35:52;;;;;;;32.15;22.13;;;10.70;99.90;;;;;;5053001;28;20940;-49
2022/11/14 14:38:37;;;;;;;27.57;22.30;;;10.80;99.90;;;;;;5052759;28;20241;-49
2022/11/14 14:41:23;;;;;;;32.00;23.23;;;10.90;99.90;;;;;;5053350;28;20564;-49